Latest Weather Observations for Avalon

IDV60901

Issued at 5:51 am EDT Wednesday 22 February 2017 (issued every 10 minutes, with the page automatically refreshed every 10 minutes)

About weather observations | Map of Melbourne area stations | Latest observations for Melbourne area | Other Formats
Station Details ID: 087113 Name: AVALON AIRPORT Lat: -38.03 Lon: 144.48 Height: 10.6 m
Data from the previous 72 hours. | See also: Recent months at Avalon
Date/Time
EDT
Temp
°C
App
Temp
°C
Dew
Point
°C
Rel
Hum
%
Delta-T
°C
Wind Press
QNH
hPa
Press
MSL
hPa
Rain since
9am
mm
Dir  Spd
km/h
Gust
km/h
Spd
kts
Gust
kts
22/05:30am 10.0 7.8 9.2 95 0.4 ENE 11 13 6 7 1014.7 1014.7 0.0
22/05:00am 11.2 9.6 10.3 94 0.5 NNE 9 13 5 7 1015.0 1015.0 0.0
22/04:30am 11.3 9.5 10.8 97 0.3 NNE 11 13 6 7 1015.2 1015.2 0.0
22/04:00am 10.7 10.5 10.5 99 0.1 N 2 9 1 5 1015.5 1015.5 0.0
22/03:30am 11.2 9.7 10.7 97 0.3 N 9 9 5 5 1015.7 1015.7 0.0
22/03:00am 11.5 11.8 11.0 97 0.3 CALM 0 0 0 0 1016.0 1016.0 0.0
22/02:30am 11.6 10.9 11.4 99 0.1 NNW 6 7 3 4 1016.3 1016.3 0.0
22/02:00am 12.4 11.8 12.2 99 0.1 NNW 7 7 4 4 1016.5 1016.5 0.0
22/01:30am 11.9 10.9 11.1 95 0.4 W 7 9 4 5 1017.1 1017.1 0.0
22/01:00am 12.9 12.1 11.8 93 0.6 NW 7 9 4 5 1017.5 1017.5 0.0
22/12:30am 13.2 12.6 11.8 91 0.7 NNE 6 7 3 4 1018.0 1018.0 0.0
22/12:00am 13.3 12.4 10.8 85 1.3 NNE 6 9 3 5 1018.3 1018.3 0.0
 
Date/Time
EDT
Temp
°C
App
Temp
°C
Dew
Point
°C
Rel
Hum
%
Delta-T
°C
Wind Press
QNH
hPa
Press
MSL
hPa
Rain since
9am
mm
Dir  Spd
km/h
Gust
km/h
Spd
kts
Gust
kts
21/11:30pm 15.7 15.0 13.2 85 1.4 E 9 9 5 5 1018.5 1018.5 0.0
21/11:00pm 15.2 13.6 12.7 85 1.4 ESE 13 15 7 8 1018.6 1018.6 0.0
21/10:30pm 16.1 14.3 13.4 84 1.5 ESE 15 19 8 10 1018.9 1018.9 0.0
21/10:00pm 15.5 13.9 12.8 84 1.5 SE 13 15 7 8 1018.8 1018.8 0.0
21/09:30pm 15.5 14.1 12.3 81 1.7 ESE 11 13 6 7 1018.6 1018.6 0.0
21/09:00pm 15.8 15.0 11.8 77 2.2 SE 7 9 4 5 1018.3 1018.3 0.0
21/08:30pm 16.7 15.2 12.0 74 2.6 SSE 11 13 6 7 1018.0 1018.0 0.0
21/08:00pm 18.3 15.9 10.2 59 4.3 SSE 13 15 7 8 1017.8 1017.8 0.0
21/07:30pm 19.9 17.0 10.9 56 4.9 SE 17 22 9 12 1017.6 1017.6 0.0
21/07:00pm 20.7 16.8 9.6 49 5.9 SE 20 24 11 13 1017.5 1017.5 0.0
21/06:30pm 21.1 16.8 10.6 51 5.7 ESE 24 28 13 15 1017.6 1017.6 0.0
21/06:00pm 21.6 17.3 9.2 45 6.6 ESE 22 26 12 14 1017.5 1017.5 0.0
21/05:30pm 21.7 16.7 8.2 42 7.1 ESE 24 28 13 15 1017.8 1017.8 0.0
21/05:00pm 21.9 17.6 9.4 45 6.7 ESE 22 30 12 16 1018.0 1018.0 0.0
21/04:30pm 21.7 17.2 8.6 43 6.9 ESE 22 28 12 15 1018.4 1018.4 0.0
21/04:00pm 21.3 16.2 7.5 41 7.1 ESE 24 32 13 17 1018.8 1018.8 0.0
21/03:30pm 21.6 16.8 8.8 44 6.8 ESE 24 30 13 16 1019.1 1019.1 0.0
21/03:00pm 21.2 16.7 8.5 44 6.7 ESE 22 28 12 15 1019.5 1019.5 0.0
21/02:30pm 21.0 16.5 8.6 45 6.5 SE 22 28 12 15 1019.8 1019.8 0.0
21/02:00pm 21.6 17.2 8.8 44 6.8 SE 22 30 12 16 1020.1 1020.1 0.0
21/01:30pm 20.4 17.5 8.1 45 6.4 SE 13 20 7 11 1020.4 1020.4 0.0
21/01:00pm 20.0 16.8 8.4 47 6.0 E 15 24 8 13 1020.6 1020.6 0.0
21/12:30pm 20.6 17.5 8.9 47 6.2 SE 15 32 8 17 1021.2 1021.2 0.0
21/12:00pm 19.3 18.7 8.9 51 5.4 SE 2 7 1 4 1021.5 1021.5 0.0
21/11:30am 18.9 17.3 8.8 52 5.3 SSE 7 15 4 8 1021.5 1021.5 0.0
21/11:00am 19.2 17.9 9.9 55 4.9 ESE 7 17 4 9 1021.5 1021.5 0.0
21/10:30am 18.2 17.1 10.8 62 4.0 WSW 7 15 4 8 1021.8 1021.8 0.0
21/10:00am 16.5 14.5 10.1 66 3.4 W 11 17 6 9 1021.7 1021.7 0.0
21/09:30am 15.1 12.3 10.1 72 2.6 WNW 15 19 8 10 1021.7 1021.7 0.0
21/09:00am 13.5 10.2 9.7 78 1.9 W 17 20 9 11 1021.5 1021.5 0.0
21/08:30am 12.4 9.2 10.0 85 1.2 WNW 17 20 9 11 1021.1 1021.1 0.0
21/08:00am 10.8 8.3 9.7 93 0.6 WNW 13 15 7 8 1020.8 1020.8 0.0
21/07:30am 9.1 7.1 8.5 96 0.3 WNW 9 11 5 6 1020.4 1020.4 0.0
21/07:00am 8.2 5.4 7.1 93 0.5 W 11 13 6 7 1020.1 1020.1 0.0
21/06:30am 8.8 5.9 8.0 95 0.4 WNW 13 15 7 8 1019.6 1019.6 0.0
21/06:00am 8.7 6.1 7.9 95 0.4 NW 11 13 6 7 1019.1 1019.1 0.0
21/05:30am 8.2 5.9 7.3 94 0.4 WNW 9 11 5 6 1019.0 1019.0 0.0
21/05:00am 8.6 6.3 7.4 92 0.6 WNW 9 11 5 6 1019.1 1019.1 0.0
21/04:30am 9.3 6.3 7.9 91 0.7 WNW 13 15 7 8 1018.9 1018.9 0.0
21/04:00am 9.7 6.8 8.0 89 0.8 WNW 13 15 7 8 1018.9 1018.9 0.0
21/03:30am 10.0 6.8 8.3 89 0.8 NW 15 17 8 9 1018.7 1018.7 0.0
21/03:00am 10.1 7.2 8.2 88 0.9 WNW 13 17 7 9 1018.8 1018.8 0.0
21/02:30am 10.4 7.2 8.3 87 1.0 WNW 15 17 8 9 1018.7 1018.7 0.0
21/02:00am 10.4 7.2 8.3 87 1.0 NW 15 17 8 9 1018.7 1018.7 0.0
21/01:30am 10.4 7.5 8.2 86 1.1 NW 13 15 7 8 1019.0 1019.0 0.0
21/01:00am 10.3 7.0 8.1 86 1.1 NW 15 17 8 9 1019.0 1019.0 0.0
21/12:30am 11.4 8.6 8.4 82 1.5 WNW 13 15 7 8 1019.1 1019.1 0.0
21/12:00am 12.4 9.5 8.3 76 2.0 WSW 13 15 7 8 1018.9 1018.9 0.0
 
Date/Time
EDT
Temp
°C
App
Temp
°C
Dew
Point
°C
Rel
Hum
%
Delta-T
°C
Wind Press
QNH
hPa
Press
MSL
hPa
Rain since
9am
mm
Dir  Spd
km/h
Gust
km/h
Spd
kts
Gust
kts
20/11:30pm 13.2 9.7 8.7 74 2.3 W 17 22 9 12 1018.8 1018.8 0.0
20/11:00pm 12.9 10.0 8.2 73 2.3 WNW 13 17 7 9 1018.7 1018.7 0.0
20/10:30pm 14.1 10.4 8.1 67 3.0 WSW 17 20 9 11 1018.5 1018.5 0.0
20/10:00pm 14.5 11.1 7.8 64 3.3 W 15 20 8 11 1018.3 1018.3 0.0
20/09:30pm 15.2 12.2 7.5 60 3.8 W 13 20 7 11 1017.8 1017.8 0.0
20/09:00pm 15.7 11.4 7.2 57 4.2 WSW 19 24 10 13 1017.3 1017.3 0.0
20/08:30pm 16.5 12.0 6.9 53 4.7 WSW 20 28 11 15 1016.8 1016.8 0.0
20/08:00pm 17.3 11.2 6.8 50 5.2 WSW 28 39 15 21 1016.4 1016.4 0.0
20/07:30pm 18.2 12.9 6.7 47 5.7 WSW 24 32 13 17 1015.8 1015.8 0.0
20/07:00pm 18.8 12.4 5.3 41 6.6 WSW 28 35 15 19 1015.4 1015.4 0.0
20/06:30pm 19.5 12.4 5.6 40 6.8 WSW 32 41 17 22 1015.0 1015.0 0.0
20/06:00pm 18.8 14.5 9.3 54 5.0 SW 22 32 12 17 1014.6 1014.6 0.0
20/05:30pm 20.8 15.3 6.0 38 7.4 SW 24 32 13 17 1014.4 1014.4 0.0
20/05:06pm 19.6 14.0 8.9 50 5.6 SW 28 46 15 25 1014.1 1014.1 0.0
20/05:00pm 21.0 16.1 11.3 54 5.4 SSW 28 41 15 22 1014.0 1014.0 0.0
20/04:30pm 19.1 13.4 9.9 55 4.9 SSW 30 41 16 22 1013.6 1013.6 0.0
20/04:00pm 19.3 13.8 10.6 57 4.7 SSW 30 41 16 22 1013.4 1013.4 0.0
20/03:30pm 20.4 14.0 5.2 37 7.5 SW 28 35 15 19 1013.3 1013.3 0.0
20/03:00pm 20.8 14.3 6.7 40 7.1 SW 30 41 16 22 1013.3 1013.3 0.0
20/02:30pm 21.3 14.0 5.6 36 7.8 WSW 33 50 18 27 1013.1 1013.1 0.0
20/02:00pm 20.4 13.9 6.7 41 6.9 WSW 30 44 16 24 1013.2 1013.2 0.0
20/01:37pm 20.8 14.0 6.7 40 7.1 W 32 52 17 28 1013.1 1013.1 0.0
20/01:30pm 19.9 12.7 5.9 40 6.9 WSW 33 44 18 24 1013.3 1013.3 0.0
20/01:00pm 18.9 11.1 6.7 45 6.1 WSW 37 56 20 30 1013.4 1013.4 0.0
20/12:31pm 19.1 12.5 5.9 42 6.5 W 30 48 16 26 1013.2 1013.2 0.0
20/12:30pm 20.1 14.3 8.1 46 6.2 W 28 39 15 21 1013.2 1013.2 0.0
20/12:00pm 18.6 12.5 8.3 51 5.3 W 30 39 16 21 1013.4 1013.4 0.0
20/11:30am 17.3 10.9 9.5 60 4.1 W 33 44 18 24 1013.6 1013.6 0.0
20/11:00am 17.3 11.4 10.4 64 3.7 W 32 41 17 22 1013.7 1013.7 0.0
20/10:30am 16.3 10.8 10.6 69 3.0 W 30 43 16 23 1013.7 1013.7 0.0
20/10:00am 14.8 8.8 10.2 74 2.4 W 32 44 17 24 1013.5 1013.5 0.0
20/09:44am 15.1 10.0 10.7 75 2.3 W 28 46 15 25 1013.4 1013.4 0.0
20/09:30am 14.5 8.6 10.5 77 2.1 W 32 41 17 22 1013.3 1013.3 0.0
20/09:00am 13.5 7.4 9.9 79 1.9 W 32 39 17 21 1012.7 1012.7 5.2
20/08:30am 12.9 8.1 10.4 85 1.3 W 26 33 14 18 1012.5 1012.5 5.2
20/08:00am 11.9 7.7 9.6 86 1.2 W 22 30 12 16 1012.2 1012.2 5.2
20/07:30am 11.4 6.3 9.3 87 1.1 W 26 35 14 19 1011.7 1011.7 5.2
20/07:00am 11.2 6.5 9.3 88 1.0 WNW 24 28 13 15 1011.3 1011.3 5.2
20/06:30am 11.3 5.8 9.2 87 1.0 WNW 28 44 15 24 1011.0 1011.0 5.2
20/06:00am 11.4 6.4 9.5 88 1.0 W 26 32 14 17 1010.9 1010.9 5.2
20/05:30am 11.5 6.9 9.6 88 1.0 W 24 32 13 17 1010.7 1010.7 5.2
20/05:00am 11.1 6.1 9.4 89 0.9 W 26 35 14 19 1010.6 1010.6 5.2
20/04:30am 10.8 5.6 8.7 87 1.0 W 26 33 14 18 1010.3 1010.3 5.2
20/04:00am 10.8 4.8 8.7 87 1.0 WNW 30 37 16 20 1010.1 1010.1 5.2
20/03:30am 10.7 5.9 8.8 88 0.9 WNW 24 35 13 19 1010.1 1010.1 5.2
20/03:00am 11.2 6.0 8.9 86 1.1 WNW 26 35 14 19 1010.2 1010.2 5.2
20/02:30am 11.0 5.9 9.1 88 0.9 WNW 26 37 14 20 1010.1 1010.1 5.2
20/02:00am 10.8 5.6 8.7 87 1.0 WNW 26 35 14 19 1010.3 1010.3 5.2
20/01:30am 10.6 5.7 8.5 87 1.0 WNW 24 32 13 17 1010.4 1010.4 5.2
20/01:00am 10.5 5.2 8.4 87 1.0 WNW 26 33 14 18 1010.3 1010.3 5.2
20/12:30am 10.9 6.1 8.7 86 1.1 WNW 24 30 13 16 1010.5 1010.5 5.2
20/12:00am 10.4 5.5 8.5 88 0.9 WNW 24 30 13 16 1010.7 1010.7 5.2
 
Date/Time
EDT
Temp
°C
App
Temp
°C
Dew
Point
°C
Rel
Hum
%
Delta-T
°C
Wind Press
QNH
hPa
Press
MSL
hPa
Rain since
9am
mm
Dir  Spd
km/h
Gust
km/h
Spd
kts
Gust
kts
19/11:30pm 10.4 5.1 8.3 87 1.0 WNW 26 32 14 17 1010.4 1010.4 5.2
19/11:00pm 10.5 5.6 8.6 88 0.9 WNW 24 30 13 16 1010.6 1010.6 5.2
19/10:30pm 10.6 6.8 8.9 89 0.8 WNW 19 22 10 12 1010.7 1010.7 5.2
19/10:00pm 10.8 7.6 8.6 86 1.1 WNW 15 19 8 10 1010.6 1010.6 5.2
19/09:30pm 11.3 7.8 8.9 85 1.2 WNW 17 22 9 12 1010.4 1010.4 5.2
19/09:00pm 10.7 7.8 8.3 85 1.2 WNW 13 17 7 9 1010.2 1010.2 5.2
19/08:30pm 11.0 8.1 8.1 82 1.4 W 13 17 7 9 1009.9 1009.9 5.2
19/08:00pm 12.1 9.4 9.1 82 1.5 WNW 13 20 7 11 1009.4 1009.4 5.2
19/07:30pm 12.3 9.4 9.5 83 1.4 NW 15 19 8 10 1009.0 1009.0 5.2
19/07:00pm 11.9 9.5 10.1 89 0.9 W 13 17 7 9 1009.0 1009.0 5.2
19/06:30pm 11.7 6.9 8.9 83 1.4 W 24 33 13 18 1009.1 1009.1 4.8
19/06:00pm 12.0 6.7 9.7 86 1.2 WNW 28 33 15 18 1008.6 1008.6 4.6
19/05:30pm 11.9 7.3 9.5 85 1.2 W 24 33 13 18 1008.4 1008.4 4.6
19/05:09pm 11.1 4.8 8.8 86 1.1 WSW 32 43 17 23 1008.6 1008.6 3.6
19/05:00pm 11.4 3.3 8.6 83 1.4 WSW 41 54 22 29 1008.6 1008.6 3.4
19/04:55pm 11.7 2.9 8.0 78 1.8 WSW 44 59 24 32 1008.6 1008.6 3.2
19/04:46pm 14.1 6.7 6.7 61 3.6 SW 35 59 19 32 1008.1 1008.1 2.2
19/04:39pm 15.7 9.3 7.0 56 4.3 WSW 30 43 16 23 1007.7 1007.7 2.2
19/04:30pm 16.2 8.2 5.8 50 5.0 W 37 50 20 27 1007.6 1007.6 2.2
19/04:11pm 16.3 9.6 5.6 49 5.1 W 30 44 16 24 1007.6 1007.6 2.2
19/04:00pm 16.5 11.1 8.0 57 4.3 WNW 26 37 14 20 1007.5 1007.5 2.2
19/03:35pm 13.5 8.0 9.2 75 2.2 W 28 37 15 20 1008.1 1008.1 2.2
19/03:30pm 13.1 6.9 9.2 77 2.0 W 32 46 17 25 1008.2 1008.2 2.2
19/03:25pm 13.0 6.3 8.3 73 2.3 W 33 46 18 25 1008.1 1008.1 2.2
19/03:15pm 15.0 9.9 9.1 68 3.0 WNW 26 37 14 20 1008.0 1008.0 2.0
19/03:00pm 15.5 11.5 11.7 78 2.1 NW 24 30 13 16 1007.8 1007.8 2.0
19/02:36pm 12.8 7.7 10.7 87 1.1 WNW 28 43 15 23 1008.4 1008.4 2.0
19/02:30pm 12.4 6.6 9.6 83 1.4 W 30 44 16 24 1008.5 1008.5 2.0
19/02:27pm 12.4 6.1 8.9 79 1.8 WSW 32 61 17 33 1008.6 1008.6 2.0
19/02:23pm 12.0 4.6 6.9 71 2.4 WSW 35 61 19 33 1008.5 1008.5 2.0
19/02:19pm 12.0 5.0 6.7 70 2.5 W 33 61 18 33 1008.3 1008.3 2.0
19/02:17pm 13.8 7.2 7.6 66 3.0 W 32 61 17 33 1008.3 1008.3 1.4
19/02:00pm 18.2 11.7 6.7 47 5.7 WNW 30 46 16 25 1007.9 1007.9 0.6
19/01:54pm 18.0 12.0 7.1 49 5.5 W 28 46 15 25 1007.9 1007.9 0.6
19/01:30pm 17.3 12.1 8.7 57 4.4 W 26 44 14 24 1008.3 1008.3 0.6
19/01:00pm 13.6 7.3 8.9 73 2.4 WNW 32 39 17 21 1009.0 1009.0 0.6
19/12:30pm 14.2 7.9 9.8 75 2.3 WNW 33 44 18 24 1009.2 1009.2 0.6
19/12:00pm 13.7 7.7 10.9 83 1.5 WNW 33 43 18 23 1009.6 1009.6 0.6
19/11:30am 13.0 7.9 10.7 86 1.2 WNW 28 35 15 19 1009.7 1009.7 0.6
19/11:00am 12.9 7.0 10.3 84 1.3 WNW 32 43 17 23 1010.0 1010.0 0.2
19/10:30am 14.5 8.3 9.9 74 2.4 WNW 33 43 18 23 1010.1 1010.1 0.0
19/10:00am 15.1 7.6 9.5 69 2.9 WNW 39 56 21 30 1009.7 1009.7 0.0
19/09:30am 13.7 6.9 9.2 74 2.3 W 35 48 19 26 1009.8 1009.8 0.0
19/09:03am 14.5 7.6 8.9 69 2.8 WNW 35 56 19 30 1009.4 1009.4 0.0
19/09:00am 14.2 7.7 8.8 70 2.7 WNW 33 43 18 23 1009.4 1009.4 0.0
19/08:30am 12.8 7.1 8.5 75 2.1 WNW 28 43 15 23 1009.4 1009.4 0.0
19/08:00am 11.7 9.8 7.6 76 2.0 NW 7 19 4 10 1009.3 1009.3 0.0
19/07:30am 11.2 9.3 7.5 78 1.8 NNW 7 13 4 7 1009.4 1009.4 0.0
19/07:00am 11.6 8.1 7.1 74 2.2 NW 15 22 8 12 1009.3 1009.3 0.0
19/06:30am 11.2 8.0 6.9 75 2.0 NW 13 17 7 9 1009.3 1009.3 0.0
19/06:00am 10.8 6.2 6.4 74 2.1 NW 20 28 11 15 1009.1 1009.1 0.0

Latest Capital City Observations: Canberra | Sydney | Melbourne | Brisbane | Adelaide | Perth | Hobart | Darwin

Other Formats:

Comma delimited format used in spreadsheet applications
http://www.bom.gov.au/fwo/IDV60901/IDV60901.94854.axf

JavaScript Object Notation format (JSON) in row-major order
http://www.bom.gov.au/fwo/IDV60901/IDV60901.94854.json